Boyes, Montana
Current Conditions -  °F | °C
As of 12:15 PM on Saturday 25 Oct 2014 (Local Time) from KW43 Reporting Station
Clear Clear  
Wind Chill: 20°   Ceiling: Unl
Heat Index: 20°   Visibility: 10mi
Dew Point:   Wind: 13mph
Humidity: 26%   Direction: 210°SSW
Pressure: 30.08"   Gusts: 16mph
Location:  45.27°N, 105.03°W
Report Text: KW43 251815Z AUTO 21011G14KT 10SM CLR 20/00 A3008 RMK AO2
Loading
Personal Weather Stations






























Interactive Weather Map
Tropical Storm Tracking
New forecast layout! Learn more

10-Day Weather Forecast

Advertisements
Track Severe Weather on mobile